createdAt,value
2022-12-01T00:01:49.797Z,54.30
2022-12-01T00:04:18.693Z,48.83
2022-12-01T00:06:47.216Z,49.23
2022-12-01T00:09:33.302Z,54.33
2022-12-01T00:12:03.127Z,53.63
2022-12-01T00:14:31.442Z,53.43
2022-12-01T00:17:00.217Z,55.33
2022-12-01T00:19:29.540Z,56.73
2022-12-01T00:22:04.080Z,56.70
2022-12-01T00:24:33.478Z,57.10
2022-12-01T00:27:03.319Z,63.67
2022-12-01T00:29:31.805Z,54.00
2022-12-01T00:32:00.355Z,55.70
2022-12-01T00:34:29.304Z,60.17
2022-12-01T00:36:58.018Z,63.50
2022-12-01T00:39:26.712Z,63.07
2022-12-01T00:41:55.342Z,56.97
2022-12-01T00:44:25.248Z,63.03
2022-12-01T00:46:56.370Z,79.73
2022-12-01T00:49:25.057Z,82.00
2022-12-01T00:51:53.627Z,84.47
2022-12-01T00:54:22.220Z,91.10
2022-12-01T00:56:51.096Z,80.77
2022-12-01T00:59:19.488Z,87.37
2022-12-01T01:01:49.627Z,89.47
2022-12-01T01:04:20.254Z,95.73
2022-12-01T01:06:48.895Z,96.40
2022-12-01T01:09:18.153Z,93.87
2022-12-01T01:11:49.761Z,96.20
2022-12-01T01:14:18.880Z,97.70
2022-12-01T01:16:49.203Z,110.17
2022-12-01T01:19:17.846Z,117.67
2022-12-01T01:21:52.922Z,115.90
2022-12-01T01:24:24.645Z,106.40
2022-12-01T01:26:53.640Z,113.83
2022-12-01T01:29:22.211Z,115.20
2022-12-01T01:31:52.173Z,101.50
2022-12-01T01:34:20.919Z,114.83
2022-12-01T01:36:50.311Z,103.67
2022-12-01T01:39:19.068Z,108.20
2022-12-01T01:41:47.499Z,96.13
2022-12-01T01:44:47.850Z,104.67
2022-12-01T01:47:21.759Z,103.57
2022-12-01T01:49:51.035Z,99.47
2022-12-01T01:52:20.247Z,98.13
2022-12-01T01:54:52.325Z,99.97
2022-12-01T01:57:27.837Z,101.37
2022-12-01T02:00:00.743Z,95.10
2022-12-01T02:02:35.460Z,103.63
2022-12-01T02:05:11.125Z,122.83
2022-12-01T02:07:41.557Z,109.30
2022-12-01T02:10:13.307Z,97.37
2022-12-01T02:12:53.126Z,107.37
2022-12-01T02:15:29.766Z,106.73
2022-12-01T02:18:11.018Z,104.27
2022-12-01T02:21:19.476Z,100.67
2022-12-01T02:24:22.204Z,119.97
2022-12-01T02:26:58.468Z,111.47
2022-12-01T02:30:03.308Z,104.07
2022-12-01T02:32:48.241Z,113.30
2022-12-01T02:35:23.976Z,117.53
2022-12-01T02:38:05.776Z,112.30
2022-12-01T02:40:41.367Z,118.33
2022-12-01T02:43:22.855Z,114.60
2022-12-01T02:45:56.558Z,115.70
2022-12-01T02:48:30.492Z,120.00
2022-12-01T02:51:05.749Z,123.70
2022-12-01T02:53:35.382Z,123.53
2022-12-01T02:56:07.965Z,124.13
2022-12-01T02:58:36.550Z,132.10
2022-12-01T03:01:34.659Z,122.90
2022-12-01T03:04:25.807Z,126.00
2022-12-01T03:07:03.785Z,138.13
2022-12-01T03:09:47.206Z,129.43
2022-12-01T03:12:24.761Z,151.43
2022-12-01T03:15:02.253Z,129.17
2022-12-01T03:17:37.533Z,134.77
2022-12-01T03:20:14.172Z,146.83
2022-12-01T03:22:47.832Z,140.73
2022-12-01T03:25:18.303Z,149.97
2022-12-01T03:28:19.243Z,156.63
2022-12-01T03:30:38.960Z,152.67
2022-12-01T03:33:11.834Z,144.03
2022-12-01T03:35:45.527Z,155.73
2022-12-01T03:38:18.875Z,163.93
2022-12-01T03:40:49.475Z,153.63
2022-12-01T03:43:23.558Z,168.50
2022-12-01T03:45:56.826Z,139.00
2022-12-01T03:48:26.230Z,158.40
2022-12-01T03:51:04.682Z,163.27
2022-12-01T03:53:40.040Z,140.97
2022-12-01T03:56:09.838Z,165.00
2022-12-01T03:58:42.548Z,152.23
2022-12-01T04:01:11.237Z,144.83
2022-12-01T04:03:41.434Z,139.50
2022-12-01T04:06:12.303Z,144.60
2022-12-01T04:08:41.246Z,135.67
2022-12-01T04:11:26.093Z,128.80
2022-12-01T04:13:57.927Z,147.63
2022-12-01T04:16:26.413Z,141.73
2022-12-01T04:18:55.020Z,123.90
2022-12-01T04:21:24.859Z,133.63
2022-12-01T04:24:02.703Z,134.00
2022-12-01T04:26:33.726Z,138.93
2022-12-01T04:29:02.731Z,130.23
2022-12-01T04:31:31.872Z,142.13
2022-12-01T04:34:01.436Z,118.63
2022-12-01T04:36:33.809Z,120.57
2022-12-01T04:39:02.514Z,130.73
2022-12-01T04:41:31.293Z,127.50
2022-12-01T04:43:59.735Z,130.00
2022-12-01T04:46:28.203Z,126.13
2022-12-01T04:48:56.761Z,124.70
2022-12-01T04:51:25.278Z,123.13
2022-12-01T04:53:55.003Z,114.27
2022-12-01T04:56:23.344Z,117.33
2022-12-01T04:58:52.017Z,104.63
2022-12-01T05:01:20.484Z,99.53
2022-12-01T05:03:50.627Z,90.03
2022-12-01T05:06:21.544Z,81.70
2022-12-01T05:08:51.591Z,91.93
2022-12-01T05:11:21.666Z,85.23
2022-12-01T05:13:50.728Z,88.80
2022-12-01T05:16:21.017Z,80.00
2022-12-01T05:18:50.695Z,83.57
2022-12-01T05:21:18.695Z,79.83
2022-12-01T05:23:47.723Z,75.67
2022-12-01T05:26:16.289Z,78.63
2022-12-01T05:28:47.150Z,81.00
2022-12-01T05:31:15.671Z,74.80
2022-12-01T05:33:44.033Z,70.53
2022-12-01T05:36:12.824Z,78.67
2022-12-01T05:38:41.505Z,80.00
2022-12-01T05:41:10.514Z,79.93
2022-12-01T05:43:39.675Z,72.23
2022-12-01T05:46:10.002Z,72.87
2022-12-01T05:48:38.410Z,64.77
2022-12-01T05:51:10.945Z,66.93
2022-12-01T05:53:39.941Z,59.90
2022-12-01T05:56:09.403Z,62.10
2022-12-01T05:58:38.017Z,64.30
2022-12-01T06:01:06.863Z,52.30
2022-12-01T06:03:37.022Z,52.40
2022-12-01T06:06:05.563Z,46.83
2022-12-01T06:08:33.915Z,52.27
2022-12-01T06:11:02.629Z,49.67
2022-12-01T06:13:31.279Z,48.90
2022-12-01T06:16:01.030Z,50.63
2022-12-01T06:18:32.282Z,44.53
2022-12-01T06:21:02.835Z,46.97
2022-12-01T06:23:31.545Z,51.80
2022-12-01T06:26:00.413Z,55.80
2022-12-01T06:28:29.236Z,52.83
2022-12-01T06:31:02.774Z,51.83
2022-12-01T06:33:35.381Z,46.03
2022-12-01T06:36:07.382Z,51.77
2022-12-01T06:38:36.882Z,63.03
2022-12-01T06:41:06.451Z,51.63
2022-12-01T06:43:37.839Z,52.07
2022-12-01T06:46:07.395Z,49.60
2022-12-01T06:48:35.994Z,47.47
2022-12-01T06:51:06.033Z,51.23
2022-12-01T06:53:34.825Z,49.47
2022-12-01T06:56:04.904Z,54.60
2022-12-01T06:58:34.792Z,46.23
2022-12-01T07:01:09.833Z,49.50
2022-12-01T07:03:38.827Z,49.17
2022-12-01T07:06:09.035Z,46.13
2022-12-01T07:08:37.437Z,41.70
2022-12-01T07:11:08.548Z,40.53
2022-12-01T07:13:37.438Z,46.50
2022-12-01T07:16:07.261Z,39.93
2022-12-01T07:18:37.070Z,42.27
2022-12-01T07:21:10.396Z,42.70
2022-12-01T07:23:39.001Z,48.27
2022-12-01T07:26:11.559Z,54.73
2022-12-01T07:28:40.262Z,47.03
2022-12-01T07:31:12.578Z,49.10
2022-12-01T07:33:41.563Z,46.30
2022-12-01T07:36:13.474Z,52.77
2022-12-01T07:38:42.481Z,52.73
2022-12-01T07:41:12.988Z,60.33
2022-12-01T07:43:41.947Z,59.47
2022-12-01T07:46:17.190Z,58.27
2022-12-01T07:48:49.812Z,58.20
2022-12-01T07:51:20.254Z,62.97
2022-12-01T07:53:50.558Z,68.60
2022-12-01T07:56:20.244Z,72.47
2022-12-01T07:58:49.117Z,68.57
2022-12-01T08:01:19.730Z,67.10
2022-12-01T08:03:52.876Z,67.83
2022-12-01T08:06:24.249Z,68.20
2022-12-01T08:08:53.285Z,63.50
2022-12-01T08:11:23.426Z,68.00
2022-12-01T08:13:53.064Z,75.93
2022-12-01T08:16:23.874Z,70.53
2022-12-01T08:18:52.756Z,62.63
2022-12-01T08:21:24.415Z,67.57
2022-12-01T08:23:57.613Z,71.87
2022-12-01T08:26:28.101Z,71.10
2022-12-01T08:28:58.000Z,66.03
2022-12-01T08:31:29.351Z,62.30
2022-12-01T08:33:58.796Z,67.70
2022-12-01T08:36:28.984Z,63.73
2022-12-01T08:38:58.019Z,65.07
2022-12-01T08:41:28.609Z,72.37
2022-12-01T08:43:59.876Z,69.53
2022-12-01T08:46:30.810Z,61.03
2022-12-01T08:48:59.364Z,60.73
2022-12-01T08:51:29.756Z,70.53
2022-12-01T08:53:59.791Z,65.20
2022-12-01T08:56:30.584Z,57.40
2022-12-01T08:58:59.613Z,62.20
2022-12-01T09:01:28.704Z,66.87
2022-12-01T09:04:08.900Z,60.03
2022-12-01T09:06:42.484Z,70.30
2022-12-01T09:09:16.501Z,70.17
2022-12-01T09:11:45.952Z,64.50
2022-12-01T09:14:16.493Z,69.83
2022-12-01T09:16:46.688Z,70.27
2022-12-01T09:19:20.591Z,66.13
2022-12-01T09:21:53.948Z,61.37
2022-12-01T09:24:22.600Z,58.87
2022-12-01T09:26:51.354Z,63.77
2022-12-01T09:29:19.829Z,66.90
2022-12-01T09:31:48.403Z,66.17
2022-12-01T09:34:19.275Z,64.17
2022-12-01T09:36:48.879Z,78.33
2022-12-01T09:39:21.448Z,65.73
2022-12-01T09:41:53.652Z,66.17
2022-12-01T09:44:32.106Z,75.47
2022-12-01T09:47:08.788Z,61.53
2022-12-01T09:49:46.239Z,70.27
2022-12-01T09:52:18.207Z,69.77
2022-12-01T09:54:48.875Z,68.73
2022-12-01T09:57:28.090Z,63.63
2022-12-01T09:59:57.270Z,64.63
2022-12-01T10:02:32.585Z,62.43
2022-12-01T10:05:04.598Z,62.73
2022-12-01T10:07:37.965Z,68.70
2022-12-01T10:10:15.409Z,66.57
2022-12-01T10:12:45.951Z,61.97
2022-12-01T10:15:29.871Z,63.57
2022-12-01T10:18:10.111Z,58.67
2022-12-01T10:20:47.756Z,67.77
2022-12-01T10:23:35.112Z,62.87
2022-12-01T10:26:14.851Z,60.30
2022-12-01T10:28:55.465Z,60.63
2022-12-01T10:31:32.185Z,67.77
2022-12-01T10:34:03.311Z,70.63
2022-12-01T10:36:33.823Z,66.00
2022-12-01T10:39:03.867Z,69.30
2022-12-01T10:41:37.287Z,66.33
2022-12-01T10:44:08.682Z,69.30
2022-12-01T10:46:45.132Z,67.77
2022-12-01T10:49:15.578Z,69.80
2022-12-01T10:51:50.364Z,69.03
2022-12-01T10:54:19.503Z,60.63
2022-12-01T10:56:52.217Z,59.57
2022-12-01T10:59:31.565Z,62.40
2022-12-01T11:02:05.573Z,62.57
2022-12-01T11:04:45.510Z,61.90
2022-12-01T11:07:20.729Z,64.07
2022-12-01T11:10:00.918Z,64.57
2022-12-01T11:12:31.298Z,55.77
2022-12-01T11:15:00.896Z,72.20
2022-12-01T11:17:42.573Z,56.97
2022-12-01T11:20:34.347Z,65.50
2022-12-01T11:23:28.380Z,57.70
2022-12-01T11:26:01.694Z,58.00
2022-12-01T11:28:32.942Z,62.63
2022-12-01T11:31:04.242Z,56.73
2022-12-01T11:33:38.631Z,61.17
2022-12-01T11:36:14.623Z,55.50
2022-12-01T11:38:45.090Z,56.83
2022-12-01T11:41:29.202Z,59.20
2022-12-01T11:44:02.182Z,56.47
2022-12-01T11:46:35.673Z,56.00
2022-12-01T11:49:05.332Z,58.63
2022-12-01T11:51:37.718Z,57.27
2022-12-01T11:54:14.042Z,54.80
2022-12-01T11:56:44.177Z,55.73
2022-12-01T11:59:18.019Z,58.27
2022-12-01T12:02:19.302Z,58.77
2022-12-01T12:05:03.401Z,59.33
2022-12-01T12:07:41.014Z,54.63
2022-12-01T12:10:31.401Z,57.47
2022-12-01T12:13:13.957Z,54.10
2022-12-01T12:15:54.127Z,54.27
2022-12-01T12:18:46.726Z,53.30
2022-12-01T12:21:30.677Z,58.77
2022-12-01T12:24:31.505Z,55.13
2022-12-01T12:27:11.544Z,56.00
2022-12-01T12:29:54.927Z,61.43
2022-12-01T12:32:43.133Z,59.77
2022-12-01T12:35:27.001Z,60.63
2022-12-01T12:38:08.918Z,60.97
2022-12-01T12:40:46.540Z,52.03
2022-12-01T12:43:33.519Z,57.10
2022-12-01T12:46:06.294Z,60.70
2022-12-01T12:51:52.232Z,62.00
2022-12-01T12:54:27.872Z,55.60
2022-12-01T12:57:02.533Z,60.00
2022-12-01T12:59:36.951Z,52.13
2022-12-01T13:02:18.265Z,57.40
2022-12-01T13:04:53.466Z,49.83
2022-12-01T13:07:35.230Z,53.87
2022-12-01T13:10:11.467Z,52.23
2022-12-01T13:12:45.036Z,53.20
2022-12-01T13:15:17.885Z,56.47
2022-12-01T13:17:49.407Z,52.83
2022-12-01T13:20:24.320Z,51.77
2022-12-01T13:22:54.629Z,51.50
2022-12-01T13:25:28.925Z,48.70
2022-12-01T13:28:00.250Z,47.87
2022-12-01T13:30:28.889Z,49.83
2022-12-01T13:33:03.315Z,52.50
2022-12-01T13:35:36.642Z,51.20
2022-12-01T13:38:22.376Z,51.83
2022-12-01T13:40:51.308Z,49.30
2022-12-01T13:43:22.277Z,52.00
2022-12-01T13:45:51.572Z,47.07
2022-12-01T13:48:50.703Z,46.73
2022-12-01T13:51:21.369Z,50.27
2022-12-01T13:54:05.397Z,49.53
2022-12-01T13:56:47.443Z,59.53
2022-12-01T13:59:58.827Z,57.70
2022-12-01T14:02:29.190Z,48.00
2022-12-01T14:05:36.623Z,49.13
2022-12-01T14:08:21.308Z,46.77
2022-12-01T14:10:58.145Z,47.90
2022-12-01T14:13:28.304Z,47.33
2022-12-01T14:15:59.367Z,52.83
2022-12-01T14:18:34.446Z,53.97
2022-12-01T14:21:05.722Z,48.87
2022-12-01T14:23:37.230Z,59.30
2022-12-01T14:26:14.448Z,55.30
2022-12-01T14:29:19.000Z,52.43
2022-12-01T14:32:27.062Z,51.53
2022-12-01T14:34:59.692Z,52.20
2022-12-01T14:37:37.020Z,49.77
2022-12-01T14:40:13.666Z,50.83
2022-12-01T14:43:02.966Z,50.63
2022-12-01T14:45:39.583Z,51.13
2022-12-01T14:48:15.585Z,53.60
2022-12-01T14:50:50.268Z,57.30
2022-12-01T14:53:25.185Z,49.87
2022-12-01T14:56:01.206Z,56.10
2022-12-01T14:58:32.200Z,56.53
2022-12-01T15:01:06.353Z,54.77
2022-12-01T15:03:38.671Z,61.50
2022-12-01T15:06:08.727Z,52.37
2022-12-01T15:08:43.710Z,59.97
2022-12-01T15:11:25.644Z,61.70
2022-12-01T15:13:56.173Z,58.17
2022-12-01T15:16:27.249Z,54.97
2022-12-01T15:18:56.558Z,59.00
2022-12-01T15:21:27.706Z,55.90
2022-12-01T15:23:58.957Z,60.67
2022-12-01T15:26:32.081Z,54.97
2022-12-01T15:29:17.591Z,58.37
2022-12-01T15:31:50.819Z,59.63
2022-12-01T15:34:23.444Z,64.47
2022-12-01T15:36:53.608Z,61.50
2022-12-01T15:39:25.697Z,64.33
2022-12-01T15:41:57.007Z,63.30
2022-12-01T15:44:30.531Z,60.50
2022-12-01T15:46:59.561Z,55.17
2022-12-01T15:49:32.842Z,61.83
2022-12-01T15:52:10.599Z,56.80
2022-12-01T15:54:39.838Z,60.03
2022-12-01T15:57:10.226Z,67.90
2022-12-01T15:59:41.212Z,64.20
2022-12-01T16:02:28.233Z,61.70
2022-12-01T16:05:17.550Z,70.20
2022-12-01T16:08:12.498Z,56.10
2022-12-01T16:10:39.197Z,71.43
2022-12-01T16:13:47.275Z,54.40
2022-12-01T16:16:48.614Z,55.77
2022-12-01T16:19:31.181Z,55.87
2022-12-01T16:22:13.847Z,58.67
2022-12-01T16:24:47.841Z,61.30
2022-12-01T16:27:22.626Z,55.40
2022-12-01T16:29:54.290Z,63.17
2022-12-01T16:32:27.531Z,56.07
2022-12-01T16:34:56.137Z,61.33
2022-12-01T16:37:24.801Z,57.53
2022-12-01T16:39:53.518Z,75.97
2022-12-01T16:42:23.212Z,72.70
2022-12-01T16:44:53.225Z,72.63
2022-12-01T16:47:25.254Z,74.40
2022-12-01T16:49:54.299Z,79.10
2022-12-01T16:52:43.621Z,69.77
2022-12-01T16:55:30.427Z,70.00
2022-12-01T16:57:58.951Z,74.00
2022-12-01T17:00:29.617Z,78.70
2022-12-01T17:02:59.683Z,70.13
2022-12-01T17:05:28.667Z,71.53
2022-12-01T17:07:57.535Z,76.40
2022-12-01T17:10:26.221Z,76.70
2022-12-01T17:12:55.120Z,75.93
2022-12-01T17:15:23.657Z,78.70
2022-12-01T17:17:52.813Z,81.87
2022-12-01T17:20:22.895Z,83.13
2022-12-01T17:22:51.479Z,80.83
2022-12-01T17:25:19.890Z,80.90
2022-12-01T17:27:48.214Z,83.10
2022-12-01T17:30:16.773Z,87.90
2022-12-01T17:32:46.534Z,86.07
2022-12-01T17:35:15.162Z,79.73
2022-12-01T17:37:46.144Z,83.23
2022-12-01T17:40:15.017Z,89.30
2022-12-01T17:42:50.183Z,87.97
2022-12-01T17:45:20.050Z,90.13
2022-12-01T17:47:48.685Z,81.23
2022-12-01T17:50:17.702Z,91.43
2022-12-01T17:52:48.208Z,93.90
2022-12-01T17:55:16.700Z,83.53
2022-12-01T17:57:45.297Z,89.60
2022-12-01T18:00:15.714Z,93.13
2022-12-01T18:02:44.372Z,88.53
2022-12-01T18:05:13.310Z,88.50
2022-12-01T18:07:41.914Z,85.97
2022-12-01T18:10:12.727Z,87.47
2022-12-01T18:12:41.417Z,87.43
2022-12-01T18:15:12.284Z,81.33
2022-12-01T18:17:40.839Z,92.37
2022-12-01T18:20:10.718Z,90.20
2022-12-01T18:22:39.671Z,90.80
2022-12-01T18:25:08.666Z,87.07
2022-12-01T18:27:38.578Z,88.10
2022-12-01T18:30:08.652Z,91.90
2022-12-01T18:32:37.439Z,103.57
2022-12-01T18:35:06.740Z,95.17
2022-12-01T18:37:37.276Z,100.23
2022-12-01T18:40:06.772Z,103.80
2022-12-01T18:42:35.294Z,100.03
2022-12-01T18:45:05.583Z,93.73
2022-12-01T18:47:34.002Z,103.27
2022-12-01T18:50:02.620Z,94.20
2022-12-01T18:52:31.176Z,89.80
2022-12-01T18:54:59.608Z,104.13
2022-12-01T18:57:28.175Z,102.70
2022-12-01T18:59:56.597Z,107.73
2022-12-01T19:02:27.097Z,110.17
2022-12-01T19:04:55.484Z,109.23
2022-12-01T19:07:29.599Z,91.37
2022-12-01T19:09:58.607Z,107.00
2022-12-01T19:12:27.419Z,100.63
2022-12-01T19:14:57.128Z,106.93
2022-12-01T19:17:27.209Z,104.83
2022-12-01T19:19:55.779Z,99.80
2022-12-01T19:22:24.287Z,107.13
2022-12-01T19:24:53.084Z,107.13
2022-12-01T19:27:23.203Z,104.97
2022-12-01T19:29:54.027Z,111.80
2022-12-01T19:32:23.008Z,106.07
2022-12-01T19:34:52.921Z,107.03
2022-12-01T19:37:21.812Z,112.97
2022-12-01T19:39:50.811Z,108.47
2022-12-01T19:42:19.696Z,103.87
2022-12-01T19:44:49.111Z,104.57
2022-12-01T19:47:22.232Z,98.63
2022-12-01T19:49:52.925Z,112.13
2022-12-01T19:52:21.711Z,103.37
2022-12-01T19:54:50.417Z,107.70
2022-12-01T19:57:19.200Z,108.40
2022-12-01T19:59:48.156Z,105.63
2022-12-01T20:02:17.605Z,108.70
2022-12-01T20:04:46.573Z,113.40
2022-12-01T20:07:17.004Z,106.10
2022-12-01T20:09:49.887Z,106.90
2022-12-01T20:12:19.025Z,110.43
2022-12-01T20:14:47.985Z,127.50
2022-12-01T20:17:16.472Z,137.10
2022-12-01T20:19:45.172Z,119.80
2022-12-01T20:22:13.867Z,119.70
2022-12-01T20:24:43.968Z,114.83
2022-12-01T20:27:12.940Z,113.63
2022-12-01T20:29:41.303Z,111.77
2022-12-01T20:32:09.935Z,110.47
2022-12-01T20:34:38.439Z,117.10
2022-12-01T20:37:06.971Z,109.70
2022-12-01T20:39:38.203Z,108.33
2022-12-01T20:42:08.746Z,105.77
2022-12-01T20:44:38.349Z,106.27
2022-12-01T20:47:06.909Z,107.10
2022-12-01T20:49:35.738Z,106.50
2022-12-01T20:52:04.355Z,99.33
2022-12-01T20:54:33.023Z,101.50
2022-12-01T20:57:01.910Z,109.83
2022-12-01T20:59:32.213Z,113.67
2022-12-01T21:02:00.741Z,108.90
2022-12-01T21:04:29.080Z,112.40
2022-12-01T21:06:57.970Z,97.97
2022-12-01T21:09:27.571Z,109.83
2022-12-01T21:12:17.645Z,103.30
2022-12-01T21:14:55.233Z,111.20
2022-12-01T21:17:33.234Z,99.20
2022-12-01T21:20:13.119Z,103.83
2022-12-01T21:22:41.652Z,105.77
2022-12-01T21:25:15.943Z,110.13
2022-12-01T21:27:44.794Z,105.17
2022-12-01T21:30:21.000Z,104.13
2022-12-01T21:32:50.684Z,121.50
2022-12-01T21:35:22.270Z,108.67
2022-12-01T21:37:51.977Z,118.27
2022-12-01T21:40:23.704Z,117.33
2022-12-01T21:42:53.157Z,98.13
2022-12-01T21:45:27.320Z,106.57
2022-12-01T21:48:01.023Z,94.17
2022-12-01T21:50:29.749Z,104.57
2022-12-01T21:52:59.309Z,105.17
2022-12-01T21:55:47.015Z,95.90
2022-12-01T21:58:35.624Z,104.53
2022-12-01T22:01:18.034Z,101.40
2022-12-01T22:03:47.871Z,99.73
2022-12-01T22:06:30.401Z,97.03
2022-12-01T22:09:02.567Z,93.87
2022-12-01T22:11:32.150Z,99.93
2022-12-01T22:14:14.375Z,101.10
2022-12-01T22:16:46.338Z,93.93
2022-12-01T22:19:28.005Z,97.00
2022-12-01T22:22:10.018Z,91.50
2022-12-01T22:24:41.843Z,94.17
2022-12-01T22:27:23.454Z,95.77
2022-12-01T22:29:53.955Z,98.50
2022-12-01T22:32:39.847Z,87.13
2022-12-01T22:35:33.021Z,85.33
2022-12-01T22:38:16.862Z,85.20
2022-12-01T22:40:54.901Z,83.57
2022-12-01T22:43:29.355Z,80.87
2022-12-01T22:46:17.826Z,70.83
2022-12-01T22:48:51.224Z,80.27
2022-12-01T22:51:26.409Z,69.20
2022-12-01T22:54:03.047Z,71.23
2022-12-01T22:56:37.012Z,70.80
2022-12-01T22:59:16.432Z,65.77
2022-12-01T23:01:50.996Z,67.80
2022-12-01T23:04:27.694Z,63.63
2022-12-01T23:07:10.822Z,62.63
2022-12-01T23:09:42.448Z,61.00
2022-12-01T23:12:32.668Z,62.37
2022-12-01T23:15:17.229Z,61.97
2022-12-01T23:17:45.776Z,55.93
2022-12-01T23:20:34.554Z,63.67
2022-12-01T23:23:05.180Z,63.00
2022-12-01T23:25:35.717Z,60.07
2022-12-01T23:28:07.448Z,60.33
2022-12-01T23:30:37.683Z,57.67
2022-12-01T23:33:23.556Z,54.53
2022-12-01T23:35:57.398Z,64.93
2022-12-01T23:38:34.184Z,62.53
2022-12-01T23:41:05.909Z,61.80
2022-12-01T23:43:40.229Z,57.83
2022-12-01T23:46:12.361Z,54.37
2022-12-01T23:48:44.813Z,57.43
2022-12-01T23:51:19.813Z,60.87
2022-12-01T23:53:48.519Z,62.20
2022-12-01T23:56:21.925Z,57.93
2022-12-01T23:58:51.297Z,63.83
